createdAt,value
2018-09-30T00:01:05.312Z,65.88
2018-09-30T00:03:33.840Z,65.75
2018-09-30T00:06:02.484Z,65.47
2018-09-30T00:08:31.058Z,65.49
2018-09-30T00:10:59.642Z,65.70
2018-09-30T00:13:28.160Z,65.99
2018-09-30T00:15:56.836Z,66.20
2018-09-30T00:18:25.493Z,65.71
2018-09-30T00:20:54.626Z,66.24
2018-09-30T00:23:23.615Z,66.78
2018-09-30T00:25:57.464Z,67.18
2018-09-30T00:28:26.660Z,67.11
2018-09-30T00:30:55.215Z,67.15
2018-09-30T00:33:23.959Z,66.66
2018-09-30T00:35:52.524Z,67.39
2018-09-30T00:38:20.979Z,67.27
2018-09-30T00:40:49.625Z,67.16
2018-09-30T00:43:18.196Z,67.24
2018-09-30T00:45:46.928Z,67.41
2018-09-30T00:48:15.444Z,67.73
2018-09-30T00:50:44.104Z,67.85
2018-09-30T00:53:13.357Z,68.27
2018-09-30T00:55:41.824Z,68.09
2018-09-30T00:58:10.452Z,67.82
2018-09-30T01:00:38.973Z,68.22
2018-09-30T01:03:07.553Z,68.28
2018-09-30T01:05:36.137Z,68.54
2018-09-30T01:08:04.658Z,68.51
2018-09-30T01:10:40.117Z,68.49
2018-09-30T01:13:08.753Z,68.57
2018-09-30T01:15:37.265Z,68.53
2018-09-30T01:18:05.829Z,68.71
2018-09-30T01:20:34.639Z,68.72
2018-09-30T01:23:03.112Z,68.86
2018-09-30T01:25:31.552Z,68.67
2018-09-30T01:28:00.525Z,68.73
2018-09-30T01:30:28.999Z,68.47
2018-09-30T01:32:57.448Z,68.60
2018-09-30T01:35:26.071Z,68.82
2018-09-30T01:37:54.850Z,68.36
2018-09-30T01:40:29.748Z,68.59
2018-09-30T01:42:58.328Z,68.71
2018-09-30T01:45:27.243Z,68.20
2018-09-30T01:47:55.669Z,68.52
2018-09-30T01:50:24.152Z,68.01
2018-09-30T01:52:57.133Z,68.40
2018-09-30T01:55:25.835Z,68.83
2018-09-30T01:57:54.271Z,68.43
2018-09-30T02:00:23.417Z,68.77
2018-09-30T02:02:51.856Z,68.54
2018-09-30T02:05:20.455Z,68.43
2018-09-30T02:07:49.821Z,68.45
2018-09-30T02:10:18.693Z,68.60
2018-09-30T02:12:48.187Z,68.76
2018-09-30T02:15:16.666Z,68.29
2018-09-30T02:17:45.202Z,68.49
2018-09-30T02:20:13.766Z,68.59
2018-09-30T02:22:42.285Z,68.64
2018-09-30T02:25:10.895Z,68.61
2018-09-30T02:27:39.594Z,69.19
2018-09-30T02:30:08.226Z,68.74
2018-09-30T02:32:36.744Z,68.60
2018-09-30T02:35:05.908Z,69.28
2018-09-30T02:37:34.478Z,69.09
2018-09-30T02:40:03.001Z,69.38
2018-09-30T02:42:31.688Z,69.31
2018-09-30T02:45:00.213Z,69.15
2018-09-30T02:47:29.217Z,69.13
2018-09-30T02:49:57.648Z,69.07
2018-09-30T02:52:27.004Z,69.40
2018-09-30T02:54:55.446Z,69.54
2018-09-30T02:57:23.952Z,69.14
2018-09-30T02:59:53.066Z,69.40
2018-09-30T03:02:21.603Z,69.74
2018-09-30T03:04:50.010Z,69.84
2018-09-30T03:07:24.392Z,69.80
2018-09-30T03:09:52.928Z,69.41
2018-09-30T03:12:21.380Z,69.46
2018-09-30T03:14:49.778Z,69.51
2018-09-30T03:17:18.833Z,69.59
2018-09-30T03:19:47.536Z,69.88
2018-09-30T03:22:16.636Z,70.23
2018-09-30T03:24:45.079Z,69.80
2018-09-30T03:27:13.507Z,70.02
2018-09-30T03:29:41.924Z,70.38
2018-09-30T03:32:10.564Z,70.08
2018-09-30T03:34:39.258Z,70.30
2018-09-30T03:37:08.492Z,70.35
2018-09-30T03:39:37.055Z,70.11
2018-09-30T03:42:06.553Z,70.40
2018-09-30T03:44:35.124Z,70.19
2018-09-30T03:47:03.649Z,70.25
2018-09-30T03:49:33.347Z,70.13
2018-09-30T03:52:01.777Z,70.37
2018-09-30T03:54:30.299Z,70.50
2018-09-30T03:56:58.758Z,70.44
2018-09-30T03:59:27.345Z,70.54
2018-09-30T04:01:55.869Z,70.76
2018-09-30T04:04:24.503Z,70.43
2018-09-30T04:06:53.205Z,70.29
2018-09-30T04:09:21.667Z,70.69
2018-09-30T04:11:50.156Z,70.35
2018-09-30T04:14:18.714Z,70.08
2018-09-30T04:16:47.294Z,70.15
2018-09-30T04:19:15.769Z,70.21
2018-09-30T04:21:44.205Z,70.50
2018-09-30T04:24:12.740Z,69.77
2018-09-30T04:26:42.181Z,70.23
2018-09-30T04:29:11.243Z,69.98
2018-09-30T04:31:39.829Z,69.67
2018-09-30T04:34:08.306Z,69.82
2018-09-30T04:36:37.204Z,70.04
2018-09-30T04:39:08.208Z,69.92
2018-09-30T04:41:37.211Z,69.81
2018-09-30T04:44:05.718Z,69.57
2018-09-30T04:46:34.589Z,69.91
2018-09-30T04:49:03.019Z,69.95
2018-09-30T04:51:31.558Z,69.72
2018-09-30T04:53:59.964Z,70.07
2018-09-30T04:56:28.535Z,69.75
2018-09-30T04:58:57.710Z,70.12
2018-09-30T05:01:26.551Z,70.30
2018-09-30T05:03:55.706Z,70.04
2018-09-30T05:06:24.151Z,70.20
2018-09-30T05:08:52.777Z,70.34
2018-09-30T05:11:21.243Z,70.13
2018-09-30T05:13:50.334Z,70.26
2018-09-30T05:16:19.405Z,70.18
2018-09-30T05:18:47.781Z,70.44
2018-09-30T05:21:16.399Z,70.39
2018-09-30T05:23:45.032Z,70.46
2018-09-30T05:26:14.197Z,70.62
2018-09-30T05:28:43.165Z,70.56
2018-09-30T05:31:11.785Z,70.61
2018-09-30T05:33:40.181Z,70.64
2018-09-30T05:36:08.852Z,70.81
2018-09-30T05:38:37.608Z,71.18
2018-09-30T05:41:06.062Z,70.85
2018-09-30T05:43:34.705Z,70.94
2018-09-30T05:46:03.213Z,71.30
2018-09-30T05:48:32.052Z,71.35
2018-09-30T05:51:00.733Z,71.66
2018-09-30T05:53:29.308Z,71.71
2018-09-30T05:55:58.595Z,71.53
2018-09-30T05:58:27.191Z,71.66
2018-09-30T06:00:55.746Z,71.49
2018-09-30T06:03:24.987Z,71.47
2018-09-30T06:05:53.512Z,71.43
2018-09-30T06:08:22.049Z,71.18
2018-09-30T06:10:50.664Z,70.87
2018-09-30T06:13:19.247Z,70.78
2018-09-30T06:15:47.866Z,70.99
2018-09-30T06:18:16.388Z,70.97
2018-09-30T06:20:44.857Z,71.08
2018-09-30T06:23:13.332Z,70.74
2018-09-30T06:25:41.846Z,70.78
2018-09-30T06:28:10.671Z,70.75
2018-09-30T06:30:40.058Z,70.80
2018-09-30T06:33:08.762Z,70.59
2018-09-30T06:35:37.416Z,70.62
2018-09-30T06:38:05.884Z,70.54
2018-09-30T06:40:34.499Z,70.42
2018-09-30T06:43:03.160Z,70.37
2018-09-30T06:45:32.007Z,70.64
2018-09-30T06:48:00.722Z,70.63
2018-09-30T06:50:29.496Z,70.51
2018-09-30T06:52:58.181Z,70.64
2018-09-30T06:55:26.777Z,70.17
2018-09-30T06:57:55.238Z,70.45
2018-09-30T07:00:23.900Z,70.10
2018-09-30T07:02:52.545Z,70.37
2018-09-30T07:05:21.279Z,70.36
2018-09-30T07:07:49.909Z,70.43
2018-09-30T07:10:18.438Z,70.32
2018-09-30T07:12:47.001Z,70.45
2018-09-30T07:15:16.203Z,70.51
2018-09-30T07:17:45.039Z,70.35
2018-09-30T07:20:13.494Z,70.33
2018-09-30T07:22:42.330Z,70.47
2018-09-30T07:25:10.824Z,70.40
2018-09-30T07:27:39.544Z,70.11
2018-09-30T07:30:08.004Z,69.82
2018-09-30T07:32:36.706Z,69.96
2018-09-30T07:35:05.297Z,69.32
2018-09-30T07:37:33.758Z,69.21
2018-09-30T07:40:02.377Z,69.12
2018-09-30T07:42:30.792Z,69.34
2018-09-30T07:44:59.344Z,68.98
2018-09-30T07:47:28.306Z,69.01
2018-09-30T07:49:56.758Z,69.03
2018-09-30T07:52:25.324Z,68.65
2018-09-30T07:54:54.439Z,69.20
2018-09-30T07:57:23.060Z,68.76
2018-09-30T07:59:51.676Z,68.63
2018-09-30T08:02:20.318Z,68.85
2018-09-30T08:04:49.144Z,68.85
2018-09-30T08:07:17.631Z,68.56
2018-09-30T08:09:46.288Z,68.17
2018-09-30T08:12:15.089Z,67.63
2018-09-30T08:14:43.721Z,67.61
2018-09-30T08:17:12.302Z,67.14
2018-09-30T08:19:40.728Z,67.26
2018-09-30T08:22:09.443Z,67.32
2018-09-30T08:24:38.187Z,67.34
2018-09-30T08:27:06.960Z,67.10
2018-09-30T08:29:36.123Z,66.57
2018-09-30T08:32:04.628Z,66.71
2018-09-30T08:34:33.076Z,66.12
2018-09-30T08:37:01.597Z,66.23
2018-09-30T08:39:30.676Z,65.69
2018-09-30T08:41:59.506Z,65.23
2018-09-30T08:44:27.962Z,64.49
2018-09-30T08:46:56.812Z,65.00
2018-09-30T08:49:25.382Z,65.71
2018-09-30T08:51:53.909Z,65.19
2018-09-30T08:54:22.382Z,64.95
2018-09-30T08:56:51.015Z,64.35
2018-09-30T08:59:19.600Z,63.92
2018-09-30T09:01:48.162Z,64.33
2018-09-30T09:04:17.907Z,64.35
2018-09-30T09:06:46.595Z,64.00
2018-09-30T09:09:15.256Z,62.80
2018-09-30T09:11:44.158Z,62.46
2018-09-30T09:14:13.763Z,62.14
2018-09-30T09:16:42.582Z,61.96
2018-09-30T09:19:11.948Z,61.46
2018-09-30T09:21:40.759Z,61.34
2018-09-30T09:24:09.462Z,61.30
2018-09-30T09:26:38.767Z,60.99
2018-09-30T09:29:07.453Z,60.87
2018-09-30T09:31:36.078Z,60.87
2018-09-30T09:34:04.603Z,60.73
2018-09-30T09:36:34.729Z,60.05
2018-09-30T09:39:06.094Z,59.62
2018-09-30T09:41:34.814Z,59.05
2018-09-30T09:44:03.877Z,58.65
2018-09-30T09:46:32.381Z,58.93
2018-09-30T09:49:01.095Z,59.43
2018-09-30T09:51:29.605Z,58.50
2018-09-30T09:53:58.239Z,57.79
2018-09-30T09:56:27.093Z,57.67
2018-09-30T09:58:56.381Z,56.60
2018-09-30T10:01:24.784Z,56.74
2018-09-30T10:03:53.261Z,56.39
2018-09-30T10:06:21.910Z,56.58
2018-09-30T10:08:50.685Z,56.90
2018-09-30T10:11:19.193Z,55.63
2018-09-30T10:13:47.907Z,55.49
2018-09-30T10:16:21.746Z,54.66
2018-09-30T10:18:50.503Z,55.30
2018-09-30T10:21:19.261Z,54.32
2018-09-30T10:23:49.119Z,54.37
2018-09-30T10:26:17.600Z,53.80
2018-09-30T10:28:46.208Z,53.11
2018-09-30T10:31:15.176Z,52.38
2018-09-30T10:33:43.857Z,51.63
2018-09-30T10:36:12.446Z,50.59
2018-09-30T10:38:40.881Z,50.85
2018-09-30T10:41:09.311Z,51.25
2018-09-30T10:43:37.960Z,50.32
2018-09-30T10:46:06.488Z,49.33
2018-09-30T10:48:35.064Z,48.75
2018-09-30T10:51:03.866Z,49.40
2018-09-30T10:53:32.521Z,49.97
2018-09-30T10:56:01.142Z,47.96
2018-09-30T10:58:29.758Z,48.66
2018-09-30T11:00:59.013Z,46.65
2018-09-30T11:03:28.305Z,46.99
2018-09-30T11:05:57.475Z,46.75
2018-09-30T11:08:25.981Z,46.80
2018-09-30T11:10:54.508Z,46.35
2018-09-30T11:13:23.186Z,45.17
2018-09-30T11:15:51.751Z,45.22
2018-09-30T11:18:20.939Z,45.18
2018-09-30T11:20:49.540Z,44.85
2018-09-30T11:23:18.156Z,43.66
2018-09-30T11:25:46.689Z,43.04
2018-09-30T11:28:15.217Z,42.10
2018-09-30T11:30:44.166Z,42.38
2018-09-30T11:33:12.841Z,42.63
2018-09-30T11:35:41.499Z,43.29
2018-09-30T11:38:10.384Z,43.03
2018-09-30T11:40:39.322Z,42.90
2018-09-30T11:43:07.918Z,41.31
2018-09-30T11:45:36.652Z,40.45
2018-09-30T11:48:05.152Z,40.35
2018-09-30T11:50:33.735Z,40.43
2018-09-30T11:53:02.411Z,39.66
2018-09-30T11:55:31.156Z,39.86
2018-09-30T11:58:00.345Z,39.85
2018-09-30T12:00:29.116Z,39.60
2018-09-30T12:02:57.653Z,39.44
2018-09-30T12:05:26.220Z,37.14
2018-09-30T12:07:54.733Z,38.73
2018-09-30T12:10:23.942Z,37.81
2018-09-30T12:12:52.715Z,36.80
2018-09-30T12:15:21.528Z,36.39
2018-09-30T12:17:56.935Z,37.08
2018-09-30T12:20:25.508Z,36.64
2018-09-30T12:22:54.866Z,35.96
2018-09-30T12:25:23.568Z,35.99
2018-09-30T12:27:52.059Z,35.75
2018-09-30T12:30:20.691Z,35.69
2018-09-30T12:32:49.149Z,36.59
2018-09-30T12:35:17.806Z,34.83
2018-09-30T12:37:46.680Z,33.83
2018-09-30T12:40:15.813Z,33.92
2018-09-30T12:42:44.627Z,34.88
2018-09-30T12:45:13.248Z,33.89
2018-09-30T12:47:41.784Z,34.35
2018-09-30T12:50:10.248Z,33.76
2018-09-30T12:52:38.930Z,34.59
2018-09-30T12:55:07.416Z,34.46
2018-09-30T12:57:36.047Z,35.00
2018-09-30T13:00:06.263Z,33.93
2018-09-30T13:02:34.812Z,35.06
2018-09-30T13:05:03.578Z,33.95
2018-09-30T13:07:32.135Z,34.42
2018-09-30T13:10:00.685Z,34.08
2018-09-30T13:12:33.497Z,33.68
2018-09-30T13:15:02.053Z,32.67
2018-09-30T13:17:31.644Z,32.88
2018-09-30T13:20:00.870Z,32.65
2018-09-30T13:22:29.391Z,33.33
2018-09-30T13:24:58.102Z,33.05
2018-09-30T13:27:26.685Z,33.12
2018-09-30T13:29:55.267Z,32.10
2018-09-30T13:32:24.582Z,32.32
2018-09-30T13:34:53.299Z,32.07
2018-09-30T13:37:21.875Z,33.03
2018-09-30T13:39:50.585Z,33.01
2018-09-30T13:42:19.197Z,32.70
2018-09-30T13:44:47.852Z,31.90
2018-09-30T13:47:16.550Z,31.47
2018-09-30T13:49:45.220Z,30.44
2018-09-30T13:52:14.438Z,28.25
2018-09-30T13:54:43.736Z,28.57
2018-09-30T13:57:12.342Z,27.85
2018-09-30T13:59:41.527Z,28.40
2018-09-30T14:02:10.045Z,30.71
2018-09-30T14:04:38.661Z,31.38
2018-09-30T14:07:07.613Z,32.32
2018-09-30T14:09:36.725Z,34.38
2018-09-30T14:12:05.995Z,34.79
2018-09-30T14:14:34.610Z,36.17
2018-09-30T14:17:03.255Z,36.59
2018-09-30T14:19:32.393Z,37.01
2018-09-30T14:22:03.114Z,36.28
2018-09-30T14:24:31.878Z,36.11
2018-09-30T14:27:01.346Z,36.84
2018-09-30T14:29:30.088Z,37.03
2018-09-30T14:31:59.113Z,37.08
2018-09-30T14:34:28.503Z,37.76
2018-09-30T14:36:57.861Z,35.77
2018-09-30T14:39:31.308Z,32.74
2018-09-30T14:41:59.967Z,31.56
2018-09-30T14:44:28.645Z,29.87
2018-09-30T14:46:57.987Z,28.25
2018-09-30T14:49:26.441Z,27.83
2018-09-30T14:51:55.598Z,26.71
2018-09-30T14:54:24.555Z,24.92
2018-09-30T14:56:53.095Z,25.06
2018-09-30T14:59:21.624Z,24.06
2018-09-30T15:01:50.204Z,23.63
2018-09-30T15:04:18.713Z,23.65
2018-09-30T15:06:47.444Z,22.39
2018-09-30T15:09:15.947Z,25.17
2018-09-30T15:11:44.579Z,26.77
2018-09-30T15:14:13.155Z,27.34
2018-09-30T15:16:41.778Z,29.77
2018-09-30T15:19:10.385Z,30.70
2018-09-30T15:21:39.035Z,30.51
2018-09-30T15:24:07.742Z,29.95
2018-09-30T15:26:36.394Z,31.06
2018-09-30T15:29:05.019Z,31.61
2018-09-30T15:31:33.721Z,32.89
2018-09-30T15:34:02.666Z,33.31
2018-09-30T15:36:31.392Z,33.78
2018-09-30T15:38:59.958Z,34.02
2018-09-30T15:41:28.647Z,34.24
2018-09-30T15:43:57.252Z,34.01
2018-09-30T15:46:25.989Z,34.50
2018-09-30T15:48:55.102Z,35.76
2018-09-30T15:51:23.903Z,35.46
2018-09-30T15:53:52.599Z,36.23
2018-09-30T15:56:21.866Z,35.67
2018-09-30T15:58:51.351Z,36.33
2018-09-30T16:01:19.923Z,35.75
2018-09-30T16:03:49.102Z,36.19
2018-09-30T16:06:17.893Z,36.80
2018-09-30T16:08:47.755Z,36.62
2018-09-30T16:11:16.227Z,36.70
2018-09-30T16:13:44.785Z,36.94
2018-09-30T16:16:13.242Z,37.08
2018-09-30T16:18:42.001Z,38.12
2018-09-30T16:21:10.564Z,37.83
2018-09-30T16:23:39.234Z,38.31
2018-09-30T16:26:08.287Z,38.88
2018-09-30T16:28:37.053Z,39.24
2018-09-30T16:31:05.668Z,38.42
2018-09-30T16:33:34.709Z,39.14
2018-09-30T16:36:03.171Z,39.39
2018-09-30T16:38:31.817Z,40.21
2018-09-30T16:41:01.113Z,39.79
2018-09-30T16:43:29.762Z,39.81
2018-09-30T16:45:58.423Z,40.55
2018-09-30T16:48:27.094Z,40.81
2018-09-30T16:50:55.759Z,41.59
2018-09-30T16:53:24.262Z,41.85
2018-09-30T16:55:53.110Z,41.08
2018-09-30T16:58:21.589Z,42.04
2018-09-30T17:00:50.036Z,42.04
2018-09-30T17:03:18.882Z,41.99
2018-09-30T17:05:47.675Z,42.53
2018-09-30T17:08:16.843Z,42.66
2018-09-30T17:10:45.956Z,43.04
2018-09-30T17:13:14.522Z,42.89
2018-09-30T17:15:43.102Z,44.15
2018-09-30T17:18:11.676Z,43.75
2018-09-30T17:20:40.255Z,44.11
2018-09-30T17:23:08.822Z,44.82
2018-09-30T17:25:37.324Z,44.22
2018-09-30T17:28:06.197Z,45.08
2018-09-30T17:30:34.858Z,44.73
2018-09-30T17:33:03.794Z,45.30
2018-09-30T17:35:32.405Z,45.32
2018-09-30T17:38:01.640Z,46.10
2018-09-30T17:40:30.171Z,46.52
2018-09-30T17:42:58.769Z,46.13
2018-09-30T17:45:27.250Z,46.48
2018-09-30T17:47:55.787Z,46.74
2018-09-30T17:50:25.037Z,46.42
2018-09-30T17:52:53.640Z,46.81
2018-09-30T17:55:22.256Z,47.00
2018-09-30T17:57:50.962Z,46.94
2018-09-30T18:00:19.661Z,47.42
2018-09-30T18:02:48.989Z,48.07
2018-09-30T18:05:17.716Z,48.44
2018-09-30T18:07:46.398Z,47.56
2018-09-30T18:10:15.167Z,48.74
2018-09-30T18:12:44.482Z,48.21
2018-09-30T18:15:13.813Z,48.01
2018-09-30T18:17:43.357Z,49.02
2018-09-30T18:20:12.029Z,49.02
2018-09-30T18:22:40.547Z,48.91
2018-09-30T18:25:09.571Z,48.67
2018-09-30T18:27:38.192Z,48.50
2018-09-30T18:30:08.187Z,48.89
2018-09-30T18:32:37.114Z,48.74
2018-09-30T18:35:06.906Z,48.83
2018-09-30T18:37:36.357Z,49.38
2018-09-30T18:40:05.961Z,48.86
2018-09-30T18:42:35.069Z,48.73
2018-09-30T18:45:04.161Z,49.88
2018-09-30T18:47:33.433Z,49.96
2018-09-30T18:50:03.144Z,49.55
2018-09-30T18:52:32.175Z,49.90
2018-09-30T18:55:01.238Z,50.56
2018-09-30T18:57:30.741Z,51.04
2018-09-30T19:00:00.394Z,51.79
2018-09-30T19:02:29.998Z,52.56
2018-09-30T19:04:58.956Z,53.17
2018-09-30T19:07:28.102Z,53.26
2018-09-30T19:09:57.230Z,53.98
2018-09-30T19:12:26.461Z,54.37
2018-09-30T19:14:55.549Z,54.57
2018-09-30T19:17:24.646Z,54.39
2018-09-30T19:19:53.790Z,55.18
2018-09-30T19:22:23.539Z,55.77
2018-09-30T19:24:52.459Z,55.82
2018-09-30T19:27:21.008Z,56.43
2018-09-30T19:29:49.602Z,56.80
2018-09-30T19:32:18.152Z,56.93
2018-09-30T19:34:46.786Z,56.62
2018-09-30T19:37:15.328Z,57.13
2018-09-30T19:39:44.148Z,57.04
2018-09-30T19:42:13.454Z,57.72
2018-09-30T19:44:42.244Z,57.64
2018-09-30T19:47:10.794Z,58.20
2018-09-30T19:49:39.532Z,58.66
2018-09-30T19:52:08.882Z,58.26
2018-09-30T19:54:37.379Z,59.00
2018-09-30T19:57:05.895Z,59.50
2018-09-30T19:59:34.578Z,59.41
2018-09-30T20:02:03.639Z,59.22
2018-09-30T20:04:32.568Z,59.94
2018-09-30T20:07:01.126Z,60.47
2018-09-30T20:09:30.925Z,60.32
2018-09-30T20:11:59.581Z,59.88
2018-09-30T20:14:28.318Z,60.13
2018-09-30T20:16:57.038Z,60.78
2018-09-30T20:19:25.843Z,60.98
2018-09-30T20:22:01.113Z,61.13
2018-09-30T20:24:29.789Z,60.73
2018-09-30T20:26:58.592Z,60.56
2018-09-30T20:29:27.091Z,60.84
2018-09-30T20:31:56.302Z,61.39
2018-09-30T20:34:25.077Z,61.27
2018-09-30T20:36:53.777Z,61.51
2018-09-30T20:39:22.321Z,61.27
2018-09-30T20:41:57.951Z,61.57
2018-09-30T20:44:26.635Z,61.60
2018-09-30T20:46:55.288Z,60.92
2018-09-30T20:49:24.468Z,61.47
2018-09-30T20:51:53.109Z,61.83
2018-09-30T20:54:21.737Z,62.19
2018-09-30T20:56:50.265Z,62.62
2018-09-30T20:59:19.065Z,63.40
2018-09-30T21:01:47.939Z,63.43
2018-09-30T21:04:16.830Z,63.39
2018-09-30T21:06:46.072Z,63.28
2018-09-30T21:09:18.255Z,63.43
2018-09-30T21:11:46.860Z,63.41
2018-09-30T21:14:15.672Z,63.41
2018-09-30T21:16:44.251Z,63.42
2018-09-30T21:19:12.825Z,64.09
2018-09-30T21:21:41.403Z,63.74
2018-09-30T21:24:10.266Z,63.64
2018-09-30T21:26:38.949Z,63.73
2018-09-30T21:29:08.050Z,64.22
2018-09-30T21:31:36.590Z,64.56
2018-09-30T21:34:05.750Z,64.55
2018-09-30T21:36:34.832Z,65.22
2018-09-30T21:39:04.028Z,64.72
2018-09-30T21:41:32.688Z,64.33
2018-09-30T21:44:01.591Z,64.93
2018-09-30T21:46:30.102Z,64.55
2018-09-30T21:48:59.131Z,64.98
2018-09-30T21:51:27.550Z,65.25
2018-09-30T21:53:56.598Z,64.55
2018-09-30T21:56:25.102Z,65.32
2018-09-30T21:58:53.560Z,65.32
2018-09-30T22:01:22.218Z,65.47
2018-09-30T22:03:50.677Z,65.22
2018-09-30T22:06:19.336Z,65.10
2018-09-30T22:08:48.057Z,65.58
2018-09-30T22:11:17.117Z,65.89
2018-09-30T22:13:45.887Z,65.56
2018-09-30T22:16:15.202Z,66.19
2018-09-30T22:18:43.852Z,66.00
2018-09-30T22:21:12.535Z,66.04
2018-09-30T22:23:41.218Z,65.87
2018-09-30T22:26:09.669Z,65.57
2018-09-30T22:28:38.576Z,65.85
2018-09-30T22:31:07.072Z,65.89
2018-09-30T22:33:35.966Z,66.04
2018-09-30T22:36:04.940Z,65.95
2018-09-30T22:38:33.591Z,66.11
2018-09-30T22:41:02.109Z,66.78
2018-09-30T22:43:30.580Z,66.29
2018-09-30T22:45:59.185Z,66.24
2018-09-30T22:48:27.801Z,66.25
2018-09-30T22:50:57.286Z,65.85
2018-09-30T22:53:25.934Z,66.73
2018-09-30T22:55:55.272Z,66.34
2018-09-30T22:58:23.773Z,66.41
2018-09-30T23:00:52.416Z,66.82
2018-09-30T23:03:21.067Z,67.03
2018-09-30T23:05:49.904Z,67.31
2018-09-30T23:08:18.477Z,67.60
2018-09-30T23:10:46.896Z,67.72
2018-09-30T23:13:15.465Z,67.52
2018-09-30T23:15:44.139Z,67.57
2018-09-30T23:18:12.629Z,67.76
2018-09-30T23:20:41.291Z,68.59
2018-09-30T23:23:09.706Z,68.65
2018-09-30T23:25:38.962Z,68.12
2018-09-30T23:28:07.466Z,68.42
2018-09-30T23:30:35.881Z,68.08
2018-09-30T23:33:04.284Z,68.66
2018-09-30T23:35:33.013Z,68.23
2018-09-30T23:38:01.441Z,68.92
2018-09-30T23:40:29.962Z,68.58
2018-09-30T23:42:58.640Z,68.59
2018-09-30T23:45:27.342Z,68.09
2018-09-30T23:47:55.829Z,68.88
2018-09-30T23:50:24.253Z,68.60
2018-09-30T23:52:53.033Z,68.43
2018-09-30T23:55:22.366Z,68.24
2018-09-30T23:57:50.978Z,68.47
